Time;durP1;ratioP1;P1;durP2;ratioP2;P2;SDS_P1;SDS_P2;PMS_P1;PMS_P2;Temp;Humidity;BMP_temperature;BMP_pressure;BME280_temperature;BME280_humidity;BME280_pressure;Samples;Min_cycle;Max_cycle;Signal;HPM_P1;HPM_P2
2021/12/12 00:02:21;;;;;;;7.20;6.90;;;11.00;82.50;;;;;;5051376;28;20029;-79
2021/12/12 00:04:48;;;;;;;8.02;7.63;;;11.10;82.60;;;;;;5037515;28;20047;-80
2021/12/12 00:07:20;;;;;;;7.43;7.13;;;11.10;82.60;;;;;;5048708;28;20500;-80
2021/12/12 00:09:49;;;;;;;7.97;7.57;;;11.10;82.60;;;;;;5032818;28;20371;-79
2021/12/12 00:12:18;;;;;;;7.93;7.53;;;11.10;82.50;;;;;;5048622;28;20033;-79
2021/12/12 00:14:44;;;;;;;7.53;7.18;;;11.10;82.60;;;;;;5052006;28;20028;-79
2021/12/12 00:17:10;;;;;;;7.75;7.35;;;11.00;82.50;;;;;;5050068;28;20037;-80
2021/12/12 00:19:37;;;;;;;7.78;7.40;;;11.10;82.60;;;;;;5051314;28;20044;-80
2021/12/12 00:22:06;;;;;;;7.68;7.32;;;11.10;82.60;;;;;;5051710;28;20039;-79
2021/12/12 00:24:32;;;;;;;7.88;7.47;;;11.10;82.60;;;;;;5048681;28;20490;-80
2021/12/12 00:26:58;;;;;;;7.60;7.20;;;11.10;82.60;;;;;;5048896;28;20788;-79
2021/12/12 00:29:25;;;;;;;7.68;7.28;;;11.10;82.60;;;;;;5049764;28;20036;-80
2021/12/12 00:31:56;;;;;;;7.95;7.55;;;11.10;82.70;;;;;;5053333;28;20055;-80
2021/12/12 00:34:22;;;;;;;7.85;7.45;;;11.10;82.70;;;;;;5049256;28;20025;-79
2021/12/12 00:36:48;;;;;;;8.00;7.60;;;11.10;82.70;;;;;;5050327;28;20040;-80
2021/12/12 00:39:16;;;;;;;7.80;7.45;;;11.10;82.70;;;;;;5050369;28;20462;-80
2021/12/12 00:41:45;;;;;;;8.30;7.65;;;11.10;82.70;;;;;;5049016;28;20032;-80
2021/12/12 00:44:12;;;;;;;6.85;6.55;;;11.10;82.80;;;;;;5050801;28;20033;-79
2021/12/12 00:46:38;;;;;;;7.38;7.07;;;11.10;82.80;;;;;;5050738;28;20032;-80
2021/12/12 00:49:04;;;;;;;7.85;7.45;;;11.10;82.80;;;;;;5048480;28;20382;-79
2021/12/12 00:51:36;;;;;;;8.00;7.60;;;11.10;82.80;;;;;;5037147;28;20512;-79
2021/12/12 00:54:02;;;;;;;7.43;7.07;;;11.10;82.80;;;;;;5050076;28;20044;-80
2021/12/12 00:56:29;;;;;;;7.25;6.95;;;11.10;82.80;;;;;;5042233;28;20021;-79
2021/12/12 00:58:55;;;;;;;8.05;7.65;;;11.10;82.80;;;;;;5051815;28;20028;-80
2021/12/12 01:01:33;;;;;;;7.45;7.10;;;11.10;82.80;;;;;;5046827;28;20060;-79
2021/12/12 01:04:03;;;;;;;8.25;7.75;;;11.20;82.90;;;;;;5047513;28;20029;-80
2021/12/12 01:06:29;;;;;;;7.43;7.13;;;11.20;82.90;;;;;;5047797;28;20450;-80
2021/12/12 01:08:58;;;;;;;9.25;7.70;;;11.20;82.90;;;;;;5047447;28;20033;-79
2021/12/12 01:11:28;;;;;;;6.90;6.60;;;11.20;83.00;;;;;;5050739;28;20024;-80
2021/12/12 01:13:54;;;;;;;7.47;7.18;;;11.20;83.00;;;;;;5052142;28;20040;-79
2021/12/12 01:16:27;;;;;;;7.75;7.35;;;11.20;83.00;;;;;;5029536;28;20037;-79
2021/12/12 01:19:14;;;;;;;8.13;7.72;;;11.20;83.00;;;;;;5029711;28;20462;-79
2021/12/12 01:21:44;;;;;;;7.63;7.22;;;11.20;83.00;;;;;;5049608;28;20528;-80
2021/12/12 01:24:14;;;;;;;7.88;7.38;;;11.20;83.00;;;;;;5046458;28;20032;-80
2021/12/12 01:26:40;;;;;;;8.18;7.78;;;11.20;83.00;;;;;;5047283;28;20030;-79
2021/12/12 01:29:06;;;;;;;8.13;7.72;;;11.20;83.00;;;;;;5043537;28;20025;-79
2021/12/12 01:31:35;;;;;;;7.72;7.22;;;11.20;83.00;;;;;;5049490;28;20049;-79
2021/12/12 01:34:12;;;;;;;7.13;6.82;;;11.20;83.00;;;;;;5048434;28;20033;-80
2021/12/12 01:37:09;;;;;;;7.63;7.30;;;11.20;83.00;;;;;;5048754;28;20045;-80
2021/12/12 01:39:39;;;;;;;8.02;7.63;;;11.20;83.10;;;;;;5048984;28;20486;-80
2021/12/12 01:42:06;;;;;;;8.38;7.90;;;11.20;83.00;;;;;;5047012;28;20013;-79
2021/12/12 01:44:42;;;;;;;8.13;7.72;;;11.20;83.00;;;;;;5047647;28;20029;-79
2021/12/12 01:47:12;;;;;;;7.97;7.57;;;11.20;83.00;;;;;;5048981;28;20052;-79
2021/12/12 01:49:43;;;;;;;8.55;8.13;;;11.30;83.10;;;;;;5031932;28;20045;-79
2021/12/12 01:52:16;;;;;;;7.85;7.45;;;11.20;83.10;;;;;;5027710;28;20051;-79
2021/12/12 01:54:45;;;;;;;8.68;8.18;;;11.30;83.10;;;;;;5047888;28;20021;-79
2021/12/12 01:57:41;;;;;;;8.13;7.72;;;11.30;83.20;;;;;;5047299;28;20029;-80
2021/12/12 02:00:24;;;;;;;8.23;7.82;;;11.30;83.20;;;;;;5029885;28;20033;-80
2021/12/12 02:02:50;;;;;;;8.40;8.00;;;11.30;83.10;;;;;;5033313;28;20036;-79
2021/12/12 02:05:17;;;;;;;8.38;7.97;;;11.30;83.10;;;;;;5047914;28;20386;-79
2021/12/12 02:07:49;;;;;;;7.53;7.20;;;11.30;83.20;;;;;;5049932;28;20025;-79
2021/12/12 02:10:18;;;;;;;7.85;7.47;;;11.30;83.20;;;;;;5048374;28;20025;-79
2021/12/12 02:12:44;;;;;;;8.52;8.13;;;11.30;83.20;;;;;;5032645;28;20048;-79
2021/12/12 02:15:11;;;;;;;8.43;8.02;;;11.30;83.20;;;;;;5031581;28;20401;-79
2021/12/12 02:17:42;;;;;;;8.50;8.10;;;11.30;83.20;;;;;;5033299;28;20033;-80
2021/12/12 02:20:37;;;;;;;8.15;7.78;;;11.30;83.30;;;;;;5036563;28;20538;-79
2021/12/12 02:36:58;;;;;;;8.27;7.88;;;11.30;83.20;;;;;;4954427;28;20122;-79
2021/12/12 02:39:24;;;;;;;8.15;7.75;;;11.30;83.20;;;;;;4932717;28;20039;-79
2021/12/12 02:41:53;;;;;;;8.63;8.23;;;11.30;83.30;;;;;;4925731;28;20030;-79
2021/12/12 02:44:27;;;;;;;8.52;7.80;;;11.40;83.40;;;;;;4943875;28;20408;-80
2021/12/12 02:46:54;;;;;;;8.32;7.93;;;11.40;83.40;;;;;;4943524;28;20515;-79
2021/12/12 02:52:16;;;;;;;8.77;8.38;;;11.40;83.40;;;;;;4949487;28;20131;-79
2021/12/12 02:54:42;;;;;;;7.88;7.50;;;11.40;83.40;;;;;;4947744;28;20080;-79
2021/12/12 02:57:09;;;;;;;7.95;7.55;;;11.40;83.40;;;;;;4937686;28;20051;-79
2021/12/12 02:59:36;;;;;;;8.20;7.80;;;11.40;83.40;;;;;;5010435;28;20037;-79
2021/12/12 03:02:14;;;;;;;7.43;7.13;;;11.40;83.50;;;;;;5046007;28;20051;-79
2021/12/12 03:04:40;;;;;;;8.32;7.93;;;11.40;83.50;;;;;;5041304;28;20059;-79
2021/12/12 03:07:07;;;;;;;8.45;8.05;;;11.40;83.50;;;;;;5020125;28;20044;-79
2021/12/12 03:09:42;;;;;;;8.35;7.95;;;11.40;83.50;;;;;;5048023;28;20029;-79
2021/12/12 03:12:12;;;;;;;8.63;8.13;;;11.40;83.60;;;;;;5032836;28;20048;-79
2021/12/12 03:14:39;;;;;;;8.60;8.20;;;11.40;83.50;;;;;;5045712;28;20037;-79
2021/12/12 03:17:11;;;;;;;8.65;8.25;;;11.40;83.60;;;;;;5049526;28;20025;-79
2021/12/12 03:19:38;;;;;;;8.52;8.13;;;11.40;83.60;;;;;;5055651;28;20027;-79
2021/12/12 03:22:08;;;;;;;8.45;8.05;;;11.40;83.60;;;;;;5048950;28;20035;-79
2021/12/12 03:24:34;;;;;;;8.77;8.38;;;11.40;83.60;;;;;;5050819;28;20032;-79
2021/12/12 03:27:00;;;;;;;8.60;8.20;;;11.40;83.60;;;;;;5049827;28;20032;-79
2021/12/12 03:29:27;;;;;;;8.40;8.00;;;11.40;83.60;;;;;;5050226;28;20033;-79
2021/12/12 03:31:57;;;;;;;8.30;7.90;;;11.40;83.60;;;;;;5050630;28;20443;-79
2021/12/12 03:34:26;;;;;;;8.33;7.93;;;11.40;83.60;;;;;;5047065;28;20045;-79
2021/12/12 03:36:53;;;;;;;8.73;8.32;;;11.40;83.70;;;;;;5047871;28;20021;-79
2021/12/12 03:39:27;;;;;;;8.75;8.35;;;11.40;83.60;;;;;;5035630;28;20045;-79
2021/12/12 03:41:55;;;;;;;8.05;7.65;;;11.40;83.60;;;;;;5043162;28;20025;-79
2021/12/12 03:44:23;;;;;;;9.00;8.60;;;11.40;83.60;;;;;;5051341;28;20029;-79
2021/12/12 03:46:52;;;;;;;8.63;8.23;;;11.40;83.70;;;;;;5027811;28;20509;-79
2021/12/12 03:49:19;;;;;;;8.38;7.97;;;11.40;83.70;;;;;;5050116;28;20401;-80
2021/12/12 03:51:45;;;;;;;8.98;8.52;;;11.50;83.70;;;;;;5050296;28;20025;-79
2021/12/12 03:54:12;;;;;;;8.88;8.48;;;11.50;83.80;;;;;;5023281;28;20065;-79
2021/12/12 03:56:40;;;;;;;8.68;8.15;;;11.50;83.80;;;;;;5048722;28;20034;-79
2021/12/12 03:59:06;;;;;;;8.32;7.93;;;11.50;83.80;;;;;;5050904;28;20041;-79
2021/12/12 04:01:37;;;;;;;8.85;8.38;;;11.50;83.80;;;;;;5050219;28;20402;-79
2021/12/12 04:04:10;;;;;;;8.82;8.43;;;11.50;83.80;;;;;;5047349;28;20066;-79
2021/12/12 04:06:37;;;;;;;8.32;7.93;;;11.50;83.80;;;;;;5061327;28;20478;-79
2021/12/12 04:09:05;;;;;;;7.82;7.43;;;11.50;83.80;;;;;;5049244;28;20040;-79
2021/12/12 04:11:37;;;;;;;8.50;8.10;;;11.50;83.80;;;;;;5048110;28;20068;-79
2021/12/12 04:14:03;;;;;;;7.53;7.20;;;11.50;83.80;;;;;;5050822;28;20032;-79
2021/12/12 04:16:30;;;;;;;8.25;7.85;;;11.50;83.80;;;;;;5033718;28;20033;-78
2021/12/12 04:18:56;;;;;;;7.75;7.40;;;11.50;83.90;;;;;;5051619;28;20484;-80
2021/12/12 04:21:23;;;;;;;7.75;7.35;;;11.50;83.90;;;;;;5049528;28;20052;-80
2021/12/12 04:23:50;;;;;;;8.02;7.57;;;11.50;83.90;;;;;;5041647;28;20048;-80
2021/12/12 04:26:22;;;;;;;8.13;7.72;;;11.50;83.90;;;;;;5049972;28;20453;-80
2021/12/12 04:29:10;;;;;;;7.47;7.18;;;11.50;83.90;;;;;;5035111;28;20385;-79
2021/12/12 04:31:38;;;;;;;8.07;7.68;;;11.50;83.90;;;;;;5036488;28;20501;-80
2021/12/12 04:34:04;;;;;;;8.05;7.65;;;11.50;83.90;;;;;;5033947;28;20049;-80
2021/12/12 04:36:41;;;;;;;8.15;7.75;;;11.50;83.90;;;;;;5026780;28;20033;-79
2021/12/12 04:39:17;;;;;;;8.48;7.97;;;11.50;83.90;;;;;;5043952;28;20036;-79
2021/12/12 04:41:44;;;;;;;7.50;7.10;;;11.60;84.00;;;;;;5042546;28;20036;-79
2021/12/12 04:44:10;;;;;;;6.90;6.60;;;11.60;84.70;;;;;;5050325;28;20052;-79
2021/12/12 04:49:55;;;;;;;7.60;7.25;;;11.60;84.00;;;;;;5054213;28;20040;-79
2021/12/12 04:52:37;;;;;;;7.40;7.10;;;11.60;84.00;;;;;;5032720;28;20394;-79
2021/12/12 04:55:09;;;;;;;7.38;7.05;;;11.60;84.70;;;;;;5047609;28;20053;-79
2021/12/12 04:57:44;;;;;;;8.27;7.88;;;11.60;84.00;;;;;;5047412;28;20036;-79
2021/12/12 05:00:20;;;;;;;7.63;7.30;;;11.60;83.90;;;;;;5048757;28;20043;-80
2021/12/12 05:03:01;;;;;;;7.68;7.28;;;11.60;84.00;;;;;;5033630;28;20040;-79
2021/12/12 05:05:54;;;;;;;8.48;7.97;;;11.60;84.00;;;;;;5025687;28;20470;-79
2021/12/12 05:08:27;;;;;;;7.70;7.38;;;11.60;84.00;;;;;;5027591;28;20409;-79
2021/12/12 05:11:03;;;;;;;7.63;7.28;;;11.60;84.00;;;;;;5051129;28;20035;-80
2021/12/12 05:13:33;;;;;;;7.43;7.03;;;11.60;84.00;;;;;;5050135;28;20402;-80
2021/12/12 05:16:03;;;;;;;7.78;7.35;;;11.60;84.00;;;;;;5045960;28;20509;-79
2021/12/12 05:18:32;;;;;;;7.60;7.20;;;11.60;84.00;;;;;;5030265;28;20497;-79
2021/12/12 05:21:09;;;;;;;8.02;7.53;;;11.60;84.00;;;;;;5023106;28;20025;-80
2021/12/12 05:23:36;;;;;;;7.75;7.30;;;11.60;84.00;;;;;;5020575;28;20037;-80
2021/12/12 05:26:09;;;;;;;7.00;6.70;;;11.60;84.10;;;;;;5050304;28;20524;-80
2021/12/12 05:28:38;;;;;;;8.00;7.60;;;11.60;84.10;;;;;;5047219;28;20036;-80
2021/12/12 05:31:05;;;;;;;7.85;7.45;;;11.60;84.10;;;;;;5047215;28;20376;-80
2021/12/12 05:33:31;;;;;;;7.95;7.55;;;11.60;84.20;;;;;;5050117;28;20052;-79
2021/12/12 05:35:57;;;;;;;8.15;7.75;;;11.60;84.10;;;;;;5050124;28;20475;-79
2021/12/12 05:38:24;;;;;;;8.68;8.27;;;11.60;84.20;;;;;;5032976;28;20048;-80
2021/12/12 05:40:50;;;;;;;7.15;6.80;;;11.60;84.20;;;;;;5050669;28;20037;-79
2021/12/12 05:43:16;;;;;;;7.53;7.13;;;11.60;84.30;;;;;;5025961;28;20033;-80
2021/12/12 05:45:43;;;;;;;7.65;7.28;;;11.50;84.30;;;;;;5027064;28;20493;-79
2021/12/12 05:48:09;;;;;;;7.93;7.53;;;11.50;84.30;;;;;;5025473;28;20409;-80
2021/12/12 05:50:36;;;;;;;8.38;7.88;;;11.50;84.40;;;;;;5048536;28;20037;-79
2021/12/12 05:53:02;;;;;;;8.02;7.63;;;11.50;84.40;;;;;;5041804;28;20033;-79
2021/12/12 05:55:30;;;;;;;8.15;7.72;;;11.40;84.40;;;;;;5059353;28;20037;-79
2021/12/12 05:57:57;;;;;;;8.68;8.27;;;11.40;84.50;;;;;;5046858;28;20028;-80
2021/12/12 06:00:27;;;;;;;8.10;7.70;;;11.40;84.50;;;;;;5030935;28;20475;-80
2021/12/12 06:02:54;;;;;;;9.13;8.73;;;11.40;84.60;;;;;;5050042;28;20040;-80
2021/12/12 06:05:20;;;;;;;8.35;7.95;;;11.30;84.50;;;;;;5032332;28;20490;-80
2021/12/12 06:07:46;;;;;;;8.57;8.18;;;11.30;84.70;;;;;;5050815;28;20026;-80
2021/12/12 06:10:15;;;;;;;7.95;7.55;;;11.30;84.70;;;;;;5029353;28;20064;-80
2021/12/12 06:12:41;;;;;;;8.07;7.68;;;11.30;84.70;;;;;;5049973;28;20033;-79
2021/12/12 06:15:09;;;;;;;7.97;7.57;;;11.30;84.70;;;;;;5020107;28;20045;-79
2021/12/12 06:17:35;;;;;;;8.35;7.95;;;11.30;84.70;;;;;;5039279;28;20494;-81
2021/12/12 06:20:01;;;;;;;7.28;6.97;;;11.30;84.70;;;;;;5046162;28;20029;-79
2021/12/12 06:22:28;;;;;;;7.82;7.43;;;11.30;84.70;;;;;;5050072;28;20028;-79
2021/12/12 06:24:54;;;;;;;7.40;7.10;;;11.30;84.70;;;;;;5031344;28;20056;-80
2021/12/12 06:27:21;;;;;;;7.90;7.50;;;11.30;85.50;;;;;;5049427;28;20033;-81
2021/12/12 06:29:49;;;;;;;7.35;7.05;;;11.30;84.70;;;;;;5026193;28;20037;-81
2021/12/12 06:32:15;;;;;;;7.32;7.03;;;11.30;84.70;;;;;;5043569;28;20037;-81
2021/12/12 06:34:41;;;;;;;7.50;7.10;;;11.30;84.70;;;;;;5042165;28;20041;-79
2021/12/12 06:37:08;;;;;;;8.05;7.65;;;11.30;84.60;;;;;;5024623;28;20037;-80
2021/12/12 06:39:34;;;;;;;7.25;6.95;;;11.30;84.60;;;;;;5049211;28;20044;-80
2021/12/12 06:42:00;;;;;;;7.32;7.00;;;11.30;84.70;;;;;;5043315;28;20036;-80
2021/12/12 06:44:26;;;;;;;6.97;6.68;;;11.30;84.60;;;;;;5040898;28;20025;-80
2021/12/12 06:46:53;;;;;;;7.18;6.88;;;11.30;84.50;;;;;;5049805;28;20037;-80
2021/12/12 06:49:19;;;;;;;7.47;7.07;;;11.30;84.60;;;;;;5027099;28;20037;-79
2021/12/12 06:51:48;;;;;;;8.15;7.75;;;11.30;84.50;;;;;;5053033;28;20060;-78
2021/12/12 06:54:19;;;;;;;7.60;7.30;;;11.30;84.50;;;;;;5035451;28;20048;-80
2021/12/12 06:56:49;;;;;;;8.05;7.65;;;11.40;84.60;;;;;;5046162;28;20036;-80
2021/12/12 06:59:15;;;;;;;8.07;7.68;;;11.40;84.60;;;;;;5027440;28;20041;-79
2021/12/12 07:01:41;;;;;;;8.38;7.97;;;11.40;84.60;;;;;;5036424;28;20033;-79
2021/12/12 07:04:08;;;;;;;7.45;7.15;;;11.40;84.60;;;;;;5046157;28;20033;-79
2021/12/12 07:06:35;;;;;;;7.40;7.00;;;11.40;84.60;;;;;;5052150;28;20025;-81
2021/12/12 07:09:03;;;;;;;7.05;6.75;;;11.40;84.60;;;;;;5052948;28;20036;-78
2021/12/12 07:11:31;;;;;;;7.40;7.10;;;11.40;84.60;;;;;;5045576;28;20056;-79
2021/12/12 07:13:58;;;;;;;7.38;7.07;;;11.40;84.50;;;;;;5035358;28;20037;-79
2021/12/12 07:16:24;;;;;;;8.27;7.88;;;11.40;84.50;;;;;;5035480;28;20033;-79
2021/12/12 07:18:51;;;;;;;7.43;7.13;;;11.40;84.60;;;;;;5031391;28;20424;-80
2021/12/12 07:21:17;;;;;;;7.80;7.40;;;11.40;84.50;;;;;;5032935;28;20041;-79
2021/12/12 07:23:44;;;;;;;7.95;7.55;;;11.50;84.60;;;;;;5052734;28;20033;-80
2021/12/12 07:26:12;;;;;;;7.93;7.53;;;11.50;84.60;;;;;;5048289;28;20034;-80
2021/12/12 07:28:38;;;;;;;7.28;6.97;;;11.50;84.60;;;;;;5052420;28;20033;-81
2021/12/12 07:31:11;;;;;;;8.10;7.70;;;11.40;84.50;;;;;;5034887;28;20405;-81
2021/12/12 07:33:38;;;;;;;8.27;7.68;;;11.50;84.60;;;;;;5033152;28;20045;-80
2021/12/12 07:36:05;;;;;;;8.10;7.60;;;11.50;84.60;;;;;;5047886;28;20029;-79
2021/12/12 07:38:32;;;;;;;7.80;7.45;;;11.50;84.60;;;;;;5052288;28;20024;-79
2021/12/12 07:40:58;;;;;;;8.05;7.65;;;11.50;84.60;;;;;;5048896;28;20063;-79
2021/12/12 07:43:26;;;;;;;8.00;7.60;;;11.50;84.60;;;;;;5043931;28;20034;-78
2021/12/12 07:45:52;;;;;;;7.88;7.47;;;11.50;84.70;;;;;;5035344;28;20398;-81
2021/12/12 07:48:18;;;;;;;8.32;7.93;;;11.50;84.60;;;;;;5050952;28;20037;-80
2021/12/12 07:50:45;;;;;;;7.97;7.57;;;11.50;84.60;;;;;;5052074;28;20367;-80
2021/12/12 07:53:11;;;;;;;7.30;7.00;;;11.60;84.70;;;;;;5044366;28;20041;-79
2021/12/12 07:55:37;;;;;;;7.95;7.55;;;11.60;84.70;;;;;;5032854;28;20049;-81
2021/12/12 07:58:12;;;;;;;8.55;7.93;;;11.60;85.50;;;;;;5050786;28;20028;-84
2021/12/12 08:00:39;;;;;;;8.68;8.25;;;11.60;84.70;;;;;;5049079;28;20037;-81
2021/12/12 08:03:05;;;;;;;8.15;7.75;;;11.60;84.70;;;;;;5049187;28;20406;-82
2021/12/12 08:05:31;;;;;;;7.47;7.18;;;11.60;84.70;;;;;;5049422;28;20041;-81
2021/12/12 08:07:59;;;;;;;8.40;8.00;;;11.60;84.70;;;;;;5052826;28;20505;-83
2021/12/12 08:10:25;;;;;;;8.57;8.18;;;11.60;84.70;;;;;;5050225;28;20032;-82
2021/12/12 08:12:51;;;;;;;8.48;7.80;;;11.60;84.70;;;;;;5048630;28;20036;-81
2021/12/12 08:15:17;;;;;;;8.18;7.78;;;11.60;84.70;;;;;;5056378;28;20048;-79
2021/12/12 08:17:44;;;;;;;8.55;8.10;;;11.60;84.60;;;;;;5050572;28;20025;-82
2021/12/12 08:20:11;;;;;;;8.07;7.68;;;11.60;84.70;;;;;;5034670;28;20052;-80
2021/12/12 08:22:37;;;;;;;8.07;7.68;;;11.60;84.70;;;;;;5018938;28;20513;-78
2021/12/12 08:25:05;;;;;;;7.25;6.95;;;11.60;84.70;;;;;;5044417;28;20025;-81
2021/12/12 08:27:31;;;;;;;8.27;7.88;;;11.70;84.70;;;;;;5034258;28;20041;-80
2021/12/12 08:29:57;;;;;;;9.05;8.23;;;11.70;84.70;;;;;;5035017;28;20500;-82
2021/12/12 08:32:23;;;;;;;7.82;7.43;;;11.70;84.70;;;;;;5051198;28;20506;-81
2021/12/12 08:34:50;;;;;;;8.38;7.88;;;11.70;84.60;;;;;;5051450;28;20052;-80
2021/12/12 08:37:17;;;;;;;7.82;7.47;;;11.70;84.60;;;;;;5050885;28;20047;-81
2021/12/12 08:39:43;;;;;;;8.35;7.75;;;11.70;84.70;;;;;;5048115;28;20454;-82
2021/12/12 08:42:09;;;;;;;8.70;8.20;;;11.80;84.70;;;;;;5047660;28;20033;-80
2021/12/12 08:44:36;;;;;;;8.13;7.63;;;11.80;84.70;;;;;;5048587;28;20041;-80
2021/12/12 08:47:04;;;;;;;8.95;8.43;;;11.80;84.70;;;;;;5052355;28;20060;-84
2021/12/12 08:49:30;;;;;;;7.47;7.10;;;11.80;84.70;;;;;;5049863;28;20033;-85
2021/12/12 08:52:04;;;;;;;8.57;8.07;;;11.80;84.70;;;;;;5049551;28;20024;-85
2021/12/12 08:54:31;;;;;;;7.90;7.50;;;11.80;84.70;;;;;;5040312;28;20037;-81
2021/12/12 08:57:05;;;;;;;7.55;7.18;;;11.90;85.40;;;;;;5047944;28;20367;-85
2021/12/12 08:59:33;;;;;;;8.43;8.02;;;11.90;84.70;;;;;;5047823;28;20059;-87
2021/12/12 09:02:02;;;;;;;7.93;7.53;;;11.90;85.40;;;;;;5050256;28;20044;-86
2021/12/12 09:04:35;;;;;;;7.90;7.50;;;11.90;84.70;;;;;;5050658;28;20025;-81
2021/12/12 09:07:16;;;;;;;8.15;7.75;;;11.90;84.70;;;;;;5047839;28;20032;-84
2021/12/12 09:10:05;;;;;;;8.38;7.97;;;11.90;84.70;;;;;;5048263;28;20021;-82
2021/12/12 09:12:41;;;;;;;7.57;7.25;;;12.00;84.70;;;;;;5038902;28;20032;-81
2021/12/12 09:15:18;;;;;;;8.30;7.85;;;12.00;84.60;;;;;;5044102;28;20029;-79
2021/12/12 09:17:51;;;;;;;8.25;7.75;;;12.00;84.60;;;;;;5048760;28;20028;-79
2021/12/12 09:20:46;;;;;;;7.55;7.22;;;12.00;84.60;;;;;;5039600;28;20474;-79
2021/12/12 09:23:31;;;;;;;10.05;9.18;;;12.00;84.60;;;;;;5032002;28;20029;-79
2021/12/12 09:26:06;;;;;;;8.30;7.90;;;12.00;84.60;;;;;;5050750;28;20033;-79
2021/12/12 09:28:35;;;;;;;8.60;8.20;;;12.10;84.70;;;;;;5031767;28;20040;-79
2021/12/12 09:31:16;;;;;;;8.40;8.00;;;12.10;84.60;;;;;;5029518;28;20041;-79
2021/12/12 09:33:54;;;;;;;8.30;7.90;;;12.10;84.60;;;;;;5047975;28;20028;-79
2021/12/12 09:36:33;;;;;;;8.68;8.27;;;12.20;84.70;;;;;;5045588;28;21101;-81
2021/12/12 09:39:06;;;;;;;8.65;8.18;;;12.20;84.60;;;;;;5063342;28;20378;-81
2021/12/12 09:41:42;;;;;;;9.45;8.85;;;12.20;84.50;;;;;;5031376;28;20469;-82
2021/12/12 09:44:30;;;;;;;8.68;8.18;;;12.20;84.50;;;;;;5032179;28;20295;-82
2021/12/12 09:47:24;;;;;;;9.25;8.75;;;12.20;84.50;;;;;;5050208;28;20048;-81
2021/12/12 09:53:27;;;;;;;8.27;7.88;;;12.30;84.50;;;;;;5056903;28;20052;-82
2021/12/12 09:56:00;;;;;;;8.50;8.10;;;12.30;84.50;;;;;;4969456;28;20046;-80
2021/12/12 09:58:41;;;;;;;8.63;8.13;;;12.30;84.50;;;;;;4954811;28;20043;-80
2021/12/12 10:01:17;;;;;;;8.25;7.85;;;12.30;84.50;;;;;;4936586;28;20043;-80
2021/12/12 10:03:55;;;;;;;9.85;9.13;;;12.30;84.50;;;;;;4938384;28;20038;-81
2021/12/12 10:06:50;;;;;;;9.05;8.55;;;12.40;84.50;;;;;;4937348;28;20073;-81
2021/12/12 10:09:24;;;;;;;8.63;8.23;;;12.40;84.60;;;;;;4953949;28;20139;-80
2021/12/12 10:12:16;;;;;;;9.38;8.80;;;12.40;84.50;;;;;;4937443;28;20046;-79
2021/12/12 10:14:53;;;;;;;9.05;8.45;;;12.40;84.50;;;;;;4935888;29;20523;-79
2021/12/12 10:17:27;;;;;;;9.52;8.93;;;12.50;84.50;;;;;;4950385;28;20420;-79
2021/12/12 10:20:06;;;;;;;7.93;7.55;;;12.50;84.40;;;;;;4954989;28;20037;-79
2021/12/12 10:22:56;;;;;;;8.13;7.72;;;12.60;84.50;;;;;;4938463;28;20053;-79
2021/12/12 10:25:27;;;;;;;10.20;9.48;;;12.60;84.40;;;;;;4955498;28;20045;-79
2021/12/12 10:28:00;;;;;;;8.18;7.78;;;12.60;84.40;;;;;;4941303;28;20030;-81
2021/12/12 10:30:31;;;;;;;8.82;8.23;;;12.70;84.40;;;;;;4944288;28;20031;-80
2021/12/12 10:33:22;;;;;;;8.88;8.38;;;12.70;84.40;;;;;;5050738;28;20028;-80
2021/12/12 10:35:58;;;;;;;8.30;7.90;;;12.80;84.40;;;;;;5037040;28;20037;-80
2021/12/12 10:38:57;;;;;;;8.23;7.68;;;12.80;84.40;;;;;;5051911;28;20355;-82
2021/12/12 10:41:23;;;;;;;8.32;7.93;;;12.80;84.30;;;;;;5051182;28;20048;-81
2021/12/12 10:44:01;;;;;;;9.23;8.40;;;12.90;84.40;;;;;;5054844;28;20040;-81
2021/12/12 10:46:56;;;;;;;9.45;8.80;;;12.90;84.30;;;;;;5052713;28;20107;-79
2021/12/12 10:49:35;;;;;;;9.32;8.73;;;12.90;84.40;;;;;;4986556;28;20415;-78
2021/12/12 10:52:04;;;;;;;9.90;9.02;;;13.00;84.30;;;;;;4989302;28;20031;-78
2021/12/12 10:54:41;;;;;;;9.18;8.57;;;13.00;84.30;;;;;;4974334;28;20049;-79
2021/12/12 10:57:16;;;;;;;8.68;8.27;;;13.00;84.30;;;;;;4992572;28;20030;-84
2021/12/12 10:59:43;;;;;;;10.05;9.38;;;13.00;84.30;;;;;;4975527;28;20030;-79
2021/12/12 11:02:12;;;;;;;8.77;8.38;;;13.10;84.40;;;;;;4975917;28;20117;-79
2021/12/12 11:05:04;;;;;;;9.45;8.95;;;13.10;84.40;;;;;;4992389;28;20166;-78
2021/12/12 11:07:32;;;;;;;9.27;8.88;;;13.10;84.40;;;;;;4987520;28;20533;-80
2021/12/12 11:10:12;;;;;;;9.75;9.25;;;13.10;84.30;;;;;;4972787;28;20031;-80
2021/12/12 11:12:43;;;;;;;8.80;8.35;;;13.20;84.40;;;;;;4984091;28;20038;-80
2021/12/12 11:15:21;;;;;;;8.98;8.57;;;13.20;84.40;;;;;;4972525;28;20046;-80
2021/12/12 11:18:19;;;;;;;9.40;8.95;;;13.20;84.40;;;;;;4991982;28;20026;-80
2021/12/12 11:21:03;;;;;;;8.95;8.55;;;13.20;84.40;;;;;;4978277;28;20502;-80
2021/12/12 11:23:35;;;;;;;9.68;9.18;;;13.20;84.40;;;;;;4980208;28;20181;-79
2021/12/12 11:26:07;;;;;;;9.05;8.65;;;13.20;84.40;;;;;;4988007;28;20051;-78
2021/12/12 11:28:54;;;;;;;9.20;8.73;;;13.20;84.40;;;;;;5020154;28;20040;-78
2021/12/12 11:31:33;;;;;;;9.10;8.70;;;13.30;84.40;;;;;;5051103;28;20478;-77
2021/12/12 11:34:00;;;;;;;9.38;8.88;;;13.30;84.40;;;;;;5035943;28;20482;-79
2021/12/12 11:36:32;;;;;;;9.35;8.85;;;13.30;84.40;;;;;;5033506;28;20048;-79
2021/12/12 11:39:05;;;;;;;9.60;9.13;;;13.30;84.40;;;;;;5050337;28;20082;-79
2021/12/12 11:41:54;;;;;;;9.00;8.60;;;13.30;84.40;;;;;;5050450;28;20032;-78
2021/12/12 11:44:31;;;;;;;9.68;9.27;;;13.30;84.40;;;;;;5046303;28;20895;-79
2021/12/12 11:47:24;;;;;;;9.32;8.93;;;13.40;84.40;;;;;;5028432;28;20030;-78
2021/12/12 11:50:12;;;;;;;10.05;9.55;;;13.40;84.50;;;;;;5051631;28;20044;-79
2021/12/12 11:52:55;;;;;;;9.45;8.95;;;13.40;84.40;;;;;;5052715;28;20025;-79
2021/12/12 11:55:50;;;;;;;9.52;9.02;;;13.40;84.40;;;;;;5048950;28;20386;-79
2021/12/12 11:58:26;;;;;;;9.27;8.88;;;13.40;84.50;;;;;;5029278;28;20025;-81
2021/12/12 12:01:17;;;;;;;12.60;11.65;;;13.40;84.50;;;;;;5051220;28;20040;-85
2021/12/12 12:04:10;;;;;;;12.52;11.38;;;13.40;84.50;;;;;;5048846;28;20025;-83
2021/12/12 12:06:53;;;;;;;10.40;9.50;;;13.40;84.50;;;;;;5050480;28;20389;-84
2021/12/12 12:09:37;;;;;;;11.18;10.60;;;13.40;84.40;;;;;;5050436;28;20033;-83
2021/12/12 12:12:31;;;;;;;10.70;10.20;;;13.50;84.50;;;;;;5048715;28;20042;-86
2021/12/12 12:15:20;;;;;;;10.32;9.82;;;13.50;84.50;;;;;;5041266;28;20055;-87
2021/12/12 12:18:12;;;;;;;10.55;10.05;;;13.60;84.40;;;;;;5037091;28;20045;-88
2021/12/12 12:20:45;;;;;;;9.88;9.20;;;13.60;84.40;;;;;;5037039;28;20021;-85
2021/12/12 12:23:20;;;;;;;10.15;9.60;;;13.60;84.30;;;;;;5046910;28;20469;-84
2021/12/12 12:28:48;;;;;;;11.48;10.52;;;13.70;84.40;;;;;;5056415;28;20044;-84
2021/12/12 12:31:41;;;;;;;9.02;8.63;;;13.70;84.30;;;;;;5050573;28;20040;-80
2021/12/12 12:34:46;;;;;;;12.60;11.98;;;13.70;84.20;;;;;;5049956;28;20036;-80
2021/12/12 12:37:40;;;;;;;11.02;10.52;;;13.70;84.20;;;;;;5050215;28;20048;-80
2021/12/12 12:40:36;;;;;;;10.93;10.32;;;13.70;84.20;;;;;;5051398;28;20029;-80
2021/12/12 12:43:40;;;;;;;9.23;8.75;;;13.70;84.20;;;;;;5051463;28;20036;-81
2021/12/12 12:46:43;;;;;;;10.63;10.13;;;13.70;84.20;;;;;;5048711;28;20032;-80
2021/12/12 12:49:43;;;;;;;11.05;10.27;;;13.80;84.20;;;;;;5064898;28;20045;-80
2021/12/12 12:52:40;;;;;;;9.52;9.05;;;13.80;84.20;;;;;;5051564;28;20044;-80
2021/12/12 12:55:42;;;;;;;9.18;8.77;;;13.80;84.20;;;;;;5051122;28;20063;-80
2021/12/12 12:58:21;;;;;;;9.90;9.40;;;13.80;84.10;;;;;;5034011;28;20048;-80
2021/12/12 13:00:47;;;;;;;9.52;9.05;;;13.80;84.00;;;;;;5049904;28;20193;-80
2021/12/12 13:03:30;;;;;;;9.35;8.95;;;13.80;84.00;;;;;;5033049;28;20044;-80
2021/12/12 13:06:04;;;;;;;8.85;8.40;;;13.80;83.90;;;;;;5049931;28;20025;-80
2021/12/12 13:08:48;;;;;;;12.00;11.40;;;13.90;84.00;;;;;;5049125;28;20041;-79
2021/12/12 13:11:53;;;;;;;7.85;7.45;;;13.90;84.00;;;;;;5048561;28;20028;-79
2021/12/12 13:14:19;;;;;;;7.43;7.03;;;13.80;83.90;;;;;;5011098;28;20038;-79
2021/12/12 13:16:58;;;;;;;8.50;8.10;;;13.80;84.00;;;;;;4992643;28;20185;-80
2021/12/12 13:19:27;;;;;;;11.88;11.30;;;13.80;84.80;;;;;;5013738;28;20034;-80
2021/12/12 13:22:21;;;;;;;12.70;12.10;;;13.80;84.10;;;;;;5010838;28;20025;-79
2021/12/12 13:25:10;;;;;;;11.07;10.52;;;13.80;84.10;;;;;;5005483;28;20039;-80
2021/12/12 13:30:30;;;;;;;13.80;13.07;;;13.90;84.00;;;;;;5011952;28;20057;-81
2021/12/12 13:33:08;;;;;;;12.00;11.40;;;13.90;83.90;;;;;;5012911;28;20053;-81
2021/12/12 13:35:45;;;;;;;8.55;8.15;;;13.90;83.90;;;;;;4994447;28;20064;-80
2021/12/12 13:38:21;;;;;;;9.38;8.93;;;13.90;83.90;;;;;;5009322;28;20046;-80
2021/12/12 13:41:04;;;;;;;7.57;7.28;;;13.90;83.90;;;;;;4992376;28;20474;-80
2021/12/12 13:43:35;;;;;;;7.45;7.15;;;14.00;83.90;;;;;;5008843;28;20025;-80
2021/12/12 13:46:04;;;;;;;;;;;14.00;83.80;;;;;;4993472;28;20034;-80